NUQ weather

Moffett Federal Airfield
Mountain View, California, United States

Public forecast

Using degrees Fahrenheit for public forecast. Weather courtesy of forecast.io.

Current aviation weather report (METAR) for Moffett Federal Airfield

Retrieved 2019/10/16 02:56 UTC (22 minutes ago):

KNUQ 160256Z A3003 RMK AO2 SLP173 53007 PWINO

Closest aviation forecast (TAF) to Moffett Federal Airfield

Closest forecast is Norman Y. Mineta San Jose International Airport, 6.6 nm (12.2 km) ESE. Retrieved 2019-10-16 00:27 UTC (3 hours ago):

TAF KSJC 152325Z 1600/1624 32009KT P6SM SKC FM160400 VRB03KT P6SM SKC FM160900 VRB03KT P6SM FEW010 FEW200 FM161200 VRB03KT P6SM BKN010 FM161700 VRB03KT P6SM SCT010 BKN200 FM161900 29008KT P6SM BKN200